sensor_id;sensor_type;location;lat;lon;timestamp;P1;durP1;ratioP1;P2;durP2;ratioP2
32365;SDS011;18837;46.832;16.838;2023-04-15T00:00:41;1.57;;;1.33;;
32365;SDS011;18837;46.832;16.838;2023-04-15T00:03:07;1.57;;;1.47;;
32365;SDS011;18837;46.832;16.838;2023-04-15T00:05:33;2.40;;;1.50;;
32365;SDS011;18837;46.832;16.838;2023-04-15T00:07:59;2.47;;;1.70;;
32365;SDS011;18837;46.832;16.838;2023-04-15T00:10:25;2.87;;;1.50;;
32365;SDS011;18837;46.832;16.838;2023-04-15T00:12:51;1.60;;;1.50;;
32365;SDS011;18837;46.832;16.838;2023-04-15T00:15:17;1.90;;;1.70;;
32365;SDS011;18837;46.832;16.838;2023-04-15T00:17:43;2.17;;;1.70;;
32365;SDS011;18837;46.832;16.838;2023-04-15T00:20:10;3.17;;;1.60;;
32365;SDS011;18837;46.832;16.838;2023-04-15T00:22:37;2.27;;;1.80;;
32365;SDS011;18837;46.832;16.838;2023-04-15T00:25:04;1.97;;;1.70;;
32365;SDS011;18837;46.832;16.838;2023-04-15T00:27:30;2.33;;;1.80;;
32365;SDS011;18837;46.832;16.838;2023-04-15T00:29:56;3.00;;;1.77;;
32365;SDS011;18837;46.832;16.838;2023-04-15T00:32:22;2.00;;;1.80;;
32365;SDS011;18837;46.832;16.838;2023-04-15T00:34:47;2.30;;;1.70;;
32365;SDS011;18837;46.832;16.838;2023-04-15T00:37:13;2.03;;;1.63;;
32365;SDS011;18837;46.832;16.838;2023-04-15T00:39:39;2.27;;;1.83;;
32365;SDS011;18837;46.832;16.838;2023-04-15T00:42:08;2.17;;;1.70;;
32365;SDS011;18837;46.832;16.838;2023-04-15T00:44:34;2.20;;;1.33;;
32365;SDS011;18837;46.832;16.838;2023-04-15T00:47:00;1.87;;;1.60;;
32365;SDS011;18837;46.832;16.838;2023-04-15T00:49:28;1.83;;;1.73;;
32365;SDS011;18837;46.832;16.838;2023-04-15T00:51:53;2.20;;;1.80;;
32365;SDS011;18837;46.832;16.838;2023-04-15T00:54:19;1.93;;;1.67;;
32365;SDS011;18837;46.832;16.838;2023-04-15T00:56:45;1.40;;;1.30;;
32365;SDS011;18837;46.832;16.838;2023-04-15T00:59:14;2.00;;;1.80;;
32365;SDS011;18837;46.832;16.838;2023-04-15T01:01:47;2.53;;;1.80;;
32365;SDS011;18837;46.832;16.838;2023-04-15T01:04:13;2.60;;;1.57;;
32365;SDS011;18837;46.832;16.838;2023-04-15T01:06:40;1.83;;;1.73;;
32365;SDS011;18837;46.832;16.838;2023-04-15T01:09:06;2.30;;;1.90;;
32365;SDS011;18837;46.832;16.838;2023-04-15T01:11:31;2.17;;;1.53;;
32365;SDS011;18837;46.832;16.838;2023-04-15T01:14:00;2.30;;;2.10;;
32365;SDS011;18837;46.832;16.838;2023-04-15T01:16:27;1.90;;;1.80;;
32365;SDS011;18837;46.832;16.838;2023-04-15T01:18:53;2.03;;;1.83;;
32365;SDS011;18837;46.832;16.838;2023-04-15T01:21:19;2.20;;;1.87;;
32365;SDS011;18837;46.832;16.838;2023-04-15T01:23:46;2.07;;;1.77;;
32365;SDS011;18837;46.832;16.838;2023-04-15T01:26:12;1.60;;;1.47;;
32365;SDS011;18837;46.832;16.838;2023-04-15T01:28:39;1.90;;;1.67;;
32365;SDS011;18837;46.832;16.838;2023-04-15T01:31:06;1.73;;;1.60;;
32365;SDS011;18837;46.832;16.838;2023-04-15T01:33:33;2.50;;;1.97;;
32365;SDS011;18837;46.832;16.838;2023-04-15T01:36:02;1.90;;;1.67;;
32365;SDS011;18837;46.832;16.838;2023-04-15T01:38:29;2.10;;;1.70;;
32365;SDS011;18837;46.832;16.838;2023-04-15T01:40:57;2.00;;;1.80;;
32365;SDS011;18837;46.832;16.838;2023-04-15T01:43:23;2.37;;;1.90;;
32365;SDS011;18837;46.832;16.838;2023-04-15T01:45:49;1.73;;;1.60;;
32365;SDS011;18837;46.832;16.838;2023-04-15T01:48:15;2.87;;;1.97;;
32365;SDS011;18837;46.832;16.838;2023-04-15T01:50:42;1.90;;;1.73;;
32365;SDS011;18837;46.832;16.838;2023-04-15T01:53:08;2.83;;;1.90;;
32365;SDS011;18837;46.832;16.838;2023-04-15T01:55:34;2.63;;;1.97;;
32365;SDS011;18837;46.832;16.838;2023-04-15T01:57:59;1.70;;;1.60;;
32365;SDS011;18837;46.832;16.838;2023-04-15T02:00:25;2.47;;;1.87;;
32365;SDS011;18837;46.832;16.838;2023-04-15T02:02:51;1.80;;;1.60;;
32365;SDS011;18837;46.832;16.838;2023-04-15T02:05:17;1.60;;;1.50;;
32365;SDS011;18837;46.832;16.838;2023-04-15T02:07:48;2.37;;;1.70;;
32365;SDS011;18837;46.832;16.838;2023-04-15T02:10:15;2.43;;;1.80;;
32365;SDS011;18837;46.832;16.838;2023-04-15T02:12:41;2.30;;;2.10;;
32365;SDS011;18837;46.832;16.838;2023-04-15T02:15:07;2.07;;;1.60;;
32365;SDS011;18837;46.832;16.838;2023-04-15T02:17:34;2.50;;;2.03;;
32365;SDS011;18837;46.832;16.838;2023-04-15T02:20:00;2.53;;;2.17;;
32365;SDS011;18837;46.832;16.838;2023-04-15T02:22:26;2.00;;;1.53;;
32365;SDS011;18837;46.832;16.838;2023-04-15T02:24:55;2.10;;;1.80;;
32365;SDS011;18837;46.832;16.838;2023-04-15T02:27:21;1.90;;;1.70;;
32365;SDS011;18837;46.832;16.838;2023-04-15T02:29:47;2.23;;;1.77;;
32365;SDS011;18837;46.832;16.838;2023-04-15T02:32:15;2.20;;;2.00;;
32365;SDS011;18837;46.832;16.838;2023-04-15T02:34:41;2.37;;;1.93;;
32365;SDS011;18837;46.832;16.838;2023-04-15T02:37:07;2.60;;;1.90;;
32365;SDS011;18837;46.832;16.838;2023-04-15T02:39:33;2.07;;;1.87;;
32365;SDS011;18837;46.832;16.838;2023-04-15T02:42:01;2.23;;;1.83;;
32365;SDS011;18837;46.832;16.838;2023-04-15T02:44:30;2.30;;;1.90;;
32365;SDS011;18837;46.832;16.838;2023-04-15T02:46:56;1.67;;;1.57;;
32365;SDS011;18837;46.832;16.838;2023-04-15T02:49:23;2.43;;;2.17;;
32365;SDS011;18837;46.832;16.838;2023-04-15T02:51:49;2.30;;;2.10;;
32365;SDS011;18837;46.832;16.838;2023-04-15T02:54:16;2.00;;;1.77;;
32365;SDS011;18837;46.832;16.838;2023-04-15T02:56:45;1.90;;;1.67;;
32365;SDS011;18837;46.832;16.838;2023-04-15T02:59:11;2.37;;;2.07;;
32365;SDS011;18837;46.832;16.838;2023-04-15T03:01:37;3.80;;;2.13;;
32365;SDS011;18837;46.832;16.838;2023-04-15T03:04:03;2.20;;;1.83;;
32365;SDS011;18837;46.832;16.838;2023-04-15T03:06:29;3.97;;;2.10;;
32365;SDS011;18837;46.832;16.838;2023-04-15T03:08:55;2.00;;;1.80;;
32365;SDS011;18837;46.832;16.838;2023-04-15T03:11:21;2.53;;;2.20;;
32365;SDS011;18837;46.832;16.838;2023-04-15T03:13:47;1.70;;;1.60;;
32365;SDS011;18837;46.832;16.838;2023-04-15T03:16:19;2.13;;;1.80;;
32365;SDS011;18837;46.832;16.838;2023-04-15T03:18:45;2.57;;;2.30;;
32365;SDS011;18837;46.832;16.838;2023-04-15T03:21:11;2.40;;;1.80;;
32365;SDS011;18837;46.832;16.838;2023-04-15T03:23:36;2.57;;;2.27;;
32365;SDS011;18837;46.832;16.838;2023-04-15T03:26:03;2.93;;;2.10;;
32365;SDS011;18837;46.832;16.838;2023-04-15T03:28:29;2.17;;;1.97;;
32365;SDS011;18837;46.832;16.838;2023-04-15T03:30:56;2.23;;;1.93;;
32365;SDS011;18837;46.832;16.838;2023-04-15T03:33:23;2.43;;;2.03;;
32365;SDS011;18837;46.832;16.838;2023-04-15T03:35:49;2.40;;;2.20;;
32365;SDS011;18837;46.832;16.838;2023-04-15T03:38:16;2.97;;;2.40;;
32365;SDS011;18837;46.832;16.838;2023-04-15T03:40:42;2.90;;;2.37;;
32365;SDS011;18837;46.832;16.838;2023-04-15T03:43:08;2.30;;;2.10;;
32365;SDS011;18837;46.832;16.838;2023-04-15T03:45:34;2.73;;;2.20;;
32365;SDS011;18837;46.832;16.838;2023-04-15T03:48:00;3.03;;;2.17;;
32365;SDS011;18837;46.832;16.838;2023-04-15T03:50:25;2.23;;;1.93;;
32365;SDS011;18837;46.832;16.838;2023-04-15T03:52:52;2.53;;;2.20;;
32365;SDS011;18837;46.832;16.838;2023-04-15T03:55:17;2.50;;;2.30;;
32365;SDS011;18837;46.832;16.838;2023-04-15T03:57:44;2.57;;;2.37;;
32365;SDS011;18837;46.832;16.838;2023-04-15T04:00:10;2.40;;;2.17;;
32365;SDS011;18837;46.832;16.838;2023-04-15T04:02:36;3.40;;;2.40;;
32365;SDS011;18837;46.832;16.838;2023-04-15T04:05:02;2.43;;;2.17;;
32365;SDS011;18837;46.832;16.838;2023-04-15T04:07:28;2.27;;;2.07;;
32365;SDS011;18837;46.832;16.838;2023-04-15T04:09:57;2.73;;;2.47;;
32365;SDS011;18837;46.832;16.838;2023-04-15T04:12:22;2.80;;;2.27;;
32365;SDS011;18837;46.832;16.838;2023-04-15T04:14:48;2.73;;;2.17;;
32365;SDS011;18837;46.832;16.838;2023-04-15T04:17:14;3.27;;;2.53;;
32365;SDS011;18837;46.832;16.838;2023-04-15T04:19:40;3.10;;;2.20;;
32365;SDS011;18837;46.832;16.838;2023-04-15T04:22:05;3.57;;;2.73;;
32365;SDS011;18837;46.832;16.838;2023-04-15T04:30:53;2.87;;;2.30;;
32365;SDS011;18837;46.832;16.838;2023-04-15T04:33:19;3.67;;;3.00;;
32365;SDS011;18837;46.832;16.838;2023-04-15T04:35:45;3.53;;;2.97;;
32365;SDS011;18837;46.832;16.838;2023-04-15T04:38:11;3.33;;;2.90;;
32365;SDS011;18837;46.832;16.838;2023-04-15T04:40:37;3.07;;;2.77;;
32365;SDS011;18837;46.832;16.838;2023-04-15T04:43:03;3.13;;;2.83;;
32365;SDS011;18837;46.832;16.838;2023-04-15T04:45:30;2.97;;;2.67;;
32365;SDS011;18837;46.832;16.838;2023-04-15T04:47:55;3.33;;;2.90;;
32365;SDS011;18837;46.832;16.838;2023-04-15T04:50:21;3.50;;;2.80;;
32365;SDS011;18837;46.832;16.838;2023-04-15T04:52:47;3.87;;;3.00;;
32365;SDS011;18837;46.832;16.838;2023-04-15T04:55:12;3.40;;;2.93;;
32365;SDS011;18837;46.832;16.838;2023-04-15T04:57:38;3.20;;;2.90;;
32365;SDS011;18837;46.832;16.838;2023-04-15T05:00:16;3.30;;;3.00;;
32365;SDS011;18837;46.832;16.838;2023-04-15T05:02:50;3.07;;;2.50;;
32365;SDS011;18837;46.832;16.838;2023-04-15T05:05:16;3.10;;;2.50;;
32365;SDS011;18837;46.832;16.838;2023-04-15T05:07:42;3.70;;;3.20;;
32365;SDS011;18837;46.832;16.838;2023-04-15T05:10:08;3.70;;;3.00;;
32365;SDS011;18837;46.832;16.838;2023-04-15T05:12:34;3.67;;;2.90;;
32365;SDS011;18837;46.832;16.838;2023-04-15T05:15:01;2.87;;;2.57;;
32365;SDS011;18837;46.832;16.838;2023-04-15T05:17:33;3.23;;;2.83;;
32365;SDS011;18837;46.832;16.838;2023-04-15T05:19:59;3.73;;;3.33;;
32365;SDS011;18837;46.832;16.838;2023-04-15T05:22:26;3.20;;;2.90;;
32365;SDS011;18837;46.832;16.838;2023-04-15T05:24:52;3.33;;;3.03;;
32365;SDS011;18837;46.832;16.838;2023-04-15T05:27:18;3.10;;;2.80;;
32365;SDS011;18837;46.832;16.838;2023-04-15T05:29:44;5.00;;;3.20;;
32365;SDS011;18837;46.832;16.838;2023-04-15T05:32:10;3.70;;;3.40;;
32365;SDS011;18837;46.832;16.838;2023-04-15T05:34:36;4.80;;;3.80;;
32365;SDS011;18837;46.832;16.838;2023-04-15T05:37:17;4.93;;;3.33;;
32365;SDS011;18837;46.832;16.838;2023-04-15T05:39:45;4.47;;;3.80;;
32365;SDS011;18837;46.832;16.838;2023-04-15T05:42:11;7.90;;;4.00;;
32365;SDS011;18837;46.832;16.838;2023-04-15T05:44:36;3.80;;;3.40;;
32365;SDS011;18837;46.832;16.838;2023-04-15T05:47:02;6.27;;;3.67;;
32365;SDS011;18837;46.832;16.838;2023-04-15T05:49:28;3.80;;;3.33;;
32365;SDS011;18837;46.832;16.838;2023-04-15T05:52:12;14.50;;;4.97;;
32365;SDS011;18837;46.832;16.838;2023-04-15T05:54:38;8.67;;;4.40;;
32365;SDS011;18837;46.832;16.838;2023-04-15T05:57:04;6.97;;;5.20;;
32365;SDS011;18837;46.832;16.838;2023-04-15T05:59:30;6.73;;;4.30;;
32365;SDS011;18837;46.832;16.838;2023-04-15T06:01:55;5.43;;;4.70;;
32365;SDS011;18837;46.832;16.838;2023-04-15T06:04:22;11.17;;;5.33;;
32365;SDS011;18837;46.832;16.838;2023-04-15T06:06:48;6.33;;;5.00;;
32365;SDS011;18837;46.832;16.838;2023-04-15T06:12:19;5.93;;;4.63;;
32365;SDS011;18837;46.832;16.838;2023-04-15T06:14:45;5.73;;;4.20;;
32365;SDS011;18837;46.832;16.838;2023-04-15T06:17:11;4.93;;;4.43;;
32365;SDS011;18837;46.832;16.838;2023-04-15T06:19:38;4.90;;;4.40;;
32365;SDS011;18837;46.832;16.838;2023-04-15T06:22:04;5.93;;;4.27;;
32365;SDS011;18837;46.832;16.838;2023-04-15T06:24:31;4.57;;;3.77;;
32365;SDS011;18837;46.832;16.838;2023-04-15T06:26:57;4.63;;;3.97;;
32365;SDS011;18837;46.832;16.838;2023-04-15T06:29:23;5.13;;;3.90;;
32365;SDS011;18837;46.832;16.838;2023-04-15T06:31:48;6.33;;;4.47;;
32365;SDS011;18837;46.832;16.838;2023-04-15T06:34:14;4.77;;;3.97;;
32365;SDS011;18837;46.832;16.838;2023-04-15T06:36:40;4.93;;;4.30;;
32365;SDS011;18837;46.832;16.838;2023-04-15T06:39:05;5.53;;;4.37;;
32365;SDS011;18837;46.832;16.838;2023-04-15T06:41:31;5.20;;;4.00;;
32365;SDS011;18837;46.832;16.838;2023-04-15T06:44:03;4.60;;;4.00;;
32365;SDS011;18837;46.832;16.838;2023-04-15T06:46:35;4.53;;;4.07;;
32365;SDS011;18837;46.832;16.838;2023-04-15T06:49:03;3.73;;;3.43;;
32365;SDS011;18837;46.832;16.838;2023-04-15T06:51:29;4.27;;;3.87;;
32365;SDS011;18837;46.832;16.838;2023-04-15T06:53:55;4.63;;;3.97;;
32365;SDS011;18837;46.832;16.838;2023-04-15T06:56:21;6.47;;;4.40;;
32365;SDS011;18837;46.832;16.838;2023-04-15T06:58:47;4.20;;;3.77;;
32365;SDS011;18837;46.832;16.838;2023-04-15T07:01:18;5.27;;;3.70;;
32365;SDS011;18837;46.832;16.838;2023-04-15T07:03:44;4.73;;;4.07;;
32365;SDS011;18837;46.832;16.838;2023-04-15T07:06:10;5.67;;;3.27;;
32365;SDS011;18837;46.832;16.838;2023-04-15T07:08:37;3.60;;;3.30;;
32365;SDS011;18837;46.832;16.838;2023-04-15T07:11:03;4.30;;;3.63;;
32365;SDS011;18837;46.832;16.838;2023-04-15T07:13:29;5.40;;;3.50;;
32365;SDS011;18837;46.832;16.838;2023-04-15T07:15:56;4.03;;;3.60;;
32365;SDS011;18837;46.832;16.838;2023-04-15T07:21:24;3.13;;;2.83;;
32365;SDS011;18837;46.832;16.838;2023-04-15T07:23:51;4.27;;;3.40;;
32365;SDS011;18837;46.832;16.838;2023-04-15T07:26:17;3.50;;;3.20;;
32365;SDS011;18837;46.832;16.838;2023-04-15T07:28:43;3.93;;;3.10;;
32365;SDS011;18837;46.832;16.838;2023-04-15T07:31:10;3.67;;;3.00;;
32365;SDS011;18837;46.832;16.838;2023-04-15T07:33:36;3.40;;;3.07;;
32365;SDS011;18837;46.832;16.838;2023-04-15T07:36:07;3.83;;;3.43;;
32365;SDS011;18837;46.832;16.838;2023-04-15T07:38:33;3.97;;;3.30;;
32365;SDS011;18837;46.832;16.838;2023-04-15T07:40:59;3.50;;;3.20;;
32365;SDS011;18837;46.832;16.838;2023-04-15T07:43:27;3.30;;;2.93;;
32365;SDS011;18837;46.832;16.838;2023-04-15T07:45:53;3.90;;;3.00;;
32365;SDS011;18837;46.832;16.838;2023-04-15T07:48:19;3.33;;;3.03;;
32365;SDS011;18837;46.832;16.838;2023-04-15T07:50:45;3.17;;;2.87;;
32365;SDS011;18837;46.832;16.838;2023-04-15T07:53:23;3.50;;;2.93;;
32365;SDS011;18837;46.832;16.838;2023-04-15T07:55:49;3.13;;;2.80;;
32365;SDS011;18837;46.832;16.838;2023-04-15T07:58:14;3.07;;;2.77;;
32365;SDS011;18837;46.832;16.838;2023-04-15T08:00:41;3.30;;;3.00;;
32365;SDS011;18837;46.832;16.838;2023-04-15T08:03:07;3.10;;;2.80;;
32365;SDS011;18837;46.832;16.838;2023-04-15T08:05:32;3.03;;;2.73;;
32365;SDS011;18837;46.832;16.838;2023-04-15T08:07:58;3.00;;;2.70;;
32365;SDS011;18837;46.832;16.838;2023-04-15T08:10:34;3.17;;;2.87;;
32365;SDS011;18837;46.832;16.838;2023-04-15T08:13:00;3.03;;;2.73;;
32365;SDS011;18837;46.832;16.838;2023-04-15T08:15:26;2.37;;;2.17;;
32365;SDS011;18837;46.832;16.838;2023-04-15T08:17:52;3.10;;;2.50;;
32365;SDS011;18837;46.832;16.838;2023-04-15T08:20:18;2.70;;;2.47;;
32365;SDS011;18837;46.832;16.838;2023-04-15T08:22:44;6.47;;;3.10;;
32365;SDS011;18837;46.832;16.838;2023-04-15T08:25:13;3.30;;;2.70;;
32365;SDS011;18837;46.832;16.838;2023-04-15T08:27:57;3.03;;;2.53;;
32365;SDS011;18837;46.832;16.838;2023-04-15T08:30:35;3.27;;;2.43;;
32365;SDS011;18837;46.832;16.838;2023-04-15T08:33:01;2.63;;;2.43;;
32365;SDS011;18837;46.832;16.838;2023-04-15T08:35:27;3.00;;;2.60;;
32365;SDS011;18837;46.832;16.838;2023-04-15T08:37:53;3.37;;;2.70;;
32365;SDS011;18837;46.832;16.838;2023-04-15T08:40:19;2.63;;;2.43;;
32365;SDS011;18837;46.832;16.838;2023-04-15T08:42:48;3.80;;;2.67;;
32365;SDS011;18837;46.832;16.838;2023-04-15T08:45:22;2.63;;;2.30;;
32365;SDS011;18837;46.832;16.838;2023-04-15T08:47:50;2.23;;;2.00;;
32365;SDS011;18837;46.832;16.838;2023-04-15T08:50:20;3.07;;;2.43;;
32365;SDS011;18837;46.832;16.838;2023-04-15T08:52:48;3.33;;;2.50;;
32365;SDS011;18837;46.832;16.838;2023-04-15T08:55:17;2.40;;;2.20;;
32365;SDS011;18837;46.832;16.838;2023-04-15T08:57:44;2.27;;;1.93;;
32365;SDS011;18837;46.832;16.838;2023-04-15T09:00:11;3.03;;;2.33;;
32365;SDS011;18837;46.832;16.838;2023-04-15T09:02:47;2.50;;;2.30;;
32365;SDS011;18837;46.832;16.838;2023-04-15T09:05:25;2.33;;;1.87;;
32365;SDS011;18837;46.832;16.838;2023-04-15T09:07:51;3.57;;;2.50;;
32365;SDS011;18837;46.832;16.838;2023-04-15T09:10:17;2.53;;;2.03;;
32365;SDS011;18837;46.832;16.838;2023-04-15T09:12:42;2.47;;;2.10;;
32365;SDS011;18837;46.832;16.838;2023-04-15T09:15:11;3.60;;;2.30;;
32365;SDS011;18837;46.832;16.838;2023-04-15T09:17:41;2.40;;;2.20;;
32365;SDS011;18837;46.832;16.838;2023-04-15T09:20:12;2.00;;;1.80;;
32365;SDS011;18837;46.832;16.838;2023-04-15T09:22:39;2.30;;;2.10;;
32365;SDS011;18837;46.832;16.838;2023-04-15T09:27:47;2.77;;;2.10;;
32365;SDS011;18837;46.832;16.838;2023-04-15T09:30:14;2.67;;;2.40;;
32365;SDS011;18837;46.832;16.838;2023-04-15T09:32:48;2.43;;;2.10;;
32365;SDS011;18837;46.832;16.838;2023-04-15T09:35:32;2.20;;;2.00;;
32365;SDS011;18837;46.832;16.838;2023-04-15T09:41:03;3.97;;;2.40;;
32365;SDS011;18837;46.832;16.838;2023-04-15T09:43:43;2.80;;;2.03;;
32365;SDS011;18837;46.832;16.838;2023-04-15T09:46:10;1.73;;;1.60;;
32365;SDS011;18837;46.832;16.838;2023-04-15T09:48:35;3.00;;;2.07;;
32365;SDS011;18837;46.832;16.838;2023-04-15T09:51:01;1.90;;;1.60;;
32365;SDS011;18837;46.832;16.838;2023-04-15T09:53:27;2.17;;;1.60;;
32365;SDS011;18837;46.832;16.838;2023-04-15T09:58:21;2.30;;;1.90;;
32365;SDS011;18837;46.832;16.838;2023-04-15T10:00:48;2.20;;;1.77;;
32365;SDS011;18837;46.832;16.838;2023-04-15T10:03:36;1.53;;;1.43;;
32365;SDS011;18837;46.832;16.838;2023-04-15T10:06:01;2.07;;;1.40;;
32365;SDS011;18837;46.832;16.838;2023-04-15T10:08:28;3.20;;;1.47;;
32365;SDS011;18837;46.832;16.838;2023-04-15T10:11:16;1.80;;;1.70;;
32365;SDS011;18837;46.832;16.838;2023-04-15T10:16:33;1.60;;;1.50;;
32365;SDS011;18837;46.832;16.838;2023-04-15T10:19:03;2.50;;;2.20;;
32365;SDS011;18837;46.832;16.838;2023-04-15T10:21:32;3.07;;;1.90;;
32365;SDS011;18837;46.832;16.838;2023-04-15T10:23:58;2.37;;;2.00;;
32365;SDS011;18837;46.832;16.838;2023-04-15T10:26:26;2.07;;;1.83;;
32365;SDS011;18837;46.832;16.838;2023-04-15T10:29:11;3.03;;;2.10;;
32365;SDS011;18837;46.832;16.838;2023-04-15T10:31:37;2.43;;;2.20;;
32365;SDS011;18837;46.832;16.838;2023-04-15T10:34:04;2.10;;;1.90;;
32365;SDS011;18837;46.832;16.838;2023-04-15T10:36:31;2.00;;;1.80;;
32365;SDS011;18837;46.832;16.838;2023-04-15T10:38:57;1.60;;;1.50;;
32365;SDS011;18837;46.832;16.838;2023-04-15T10:41:23;2.37;;;1.60;;
32365;SDS011;18837;46.832;16.838;2023-04-15T10:52:32;2.47;;;1.90;;
32365;SDS011;18837;46.832;16.838;2023-04-15T10:55:02;1.80;;;1.50;;
32365;SDS011;18837;46.832;16.838;2023-04-15T10:57:38;1.93;;;1.60;;
32365;SDS011;18837;46.832;16.838;2023-04-15T11:02:54;2.90;;;1.70;;
32365;SDS011;18837;46.832;16.838;2023-04-15T11:06:06;2.73;;;1.70;;
32365;SDS011;18837;46.832;16.838;2023-04-15T11:08:13;2.67;;;1.60;;
32365;SDS011;18837;46.832;16.838;2023-04-15T11:15:39;1.73;;;1.37;;
32365;SDS011;18837;46.832;16.838;2023-04-15T11:18:15;2.57;;;1.60;;
32365;SDS011;18837;46.832;16.838;2023-04-15T11:23:48;2.07;;;1.30;;
32365;SDS011;18837;46.832;16.838;2023-04-15T11:26:15;1.50;;;1.20;;
32365;SDS011;18837;46.832;16.838;2023-04-15T11:28:44;1.97;;;1.40;;
32365;SDS011;18837;46.832;16.838;2023-04-15T11:31:11;1.90;;;1.30;;
32365;SDS011;18837;46.832;16.838;2023-04-15T11:36:24;1.33;;;1.20;;
32365;SDS011;18837;46.832;16.838;2023-04-15T11:38:59;1.73;;;1.30;;
32365;SDS011;18837;46.832;16.838;2023-04-15T11:41:24;1.77;;;1.40;;
32365;SDS011;18837;46.832;16.838;2023-04-15T11:43:51;1.53;;;1.10;;
32365;SDS011;18837;46.832;16.838;2023-04-15T11:46:17;1.70;;;1.50;;
32365;SDS011;18837;46.832;16.838;2023-04-15T11:48:43;1.70;;;1.17;;
32365;SDS011;18837;46.832;16.838;2023-04-15T11:51:11;2.93;;;2.07;;
32365;SDS011;18837;46.832;16.838;2023-04-15T11:53:55;2.27;;;1.63;;
32365;SDS011;18837;46.832;16.838;2023-04-15T11:56:40;2.17;;;1.60;;
32365;SDS011;18837;46.832;16.838;2023-04-15T11:59:11;2.40;;;1.60;;
32365;SDS011;18837;46.832;16.838;2023-04-15T12:01:37;1.60;;;1.23;;
32365;SDS011;18837;46.832;16.838;2023-04-15T12:04:10;2.10;;;1.60;;
32365;SDS011;18837;46.832;16.838;2023-04-15T12:06:37;3.07;;;1.37;;
32365;SDS011;18837;46.832;16.838;2023-04-15T12:09:06;2.53;;;1.90;;
32365;SDS011;18837;46.832;16.838;2023-04-15T12:11:49;2.13;;;1.60;;
32365;SDS011;18837;46.832;16.838;2023-04-15T12:14:29;1.73;;;1.40;;
32365;SDS011;18837;46.832;16.838;2023-04-15T12:16:57;1.67;;;1.37;;
32365;SDS011;18837;46.832;16.838;2023-04-15T12:19:34;1.40;;;1.07;;
32365;SDS011;18837;46.832;16.838;2023-04-15T12:22:12;1.70;;;1.40;;
32365;SDS011;18837;46.832;16.838;2023-04-15T12:24:39;1.20;;;1.00;;
32365;SDS011;18837;46.832;16.838;2023-04-15T12:27:14;1.33;;;0.97;;
32365;SDS011;18837;46.832;16.838;2023-04-15T12:30:02;2.10;;;1.37;;
32365;SDS011;18837;46.832;16.838;2023-04-15T12:32:47;1.30;;;1.00;;
32365;SDS011;18837;46.832;16.838;2023-04-15T12:35:13;1.67;;;1.13;;
32365;SDS011;18837;46.832;16.838;2023-04-15T12:37:39;1.03;;;0.93;;
32365;SDS011;18837;46.832;16.838;2023-04-15T12:40:07;1.57;;;1.10;;
32365;SDS011;18837;46.832;16.838;2023-04-15T12:42:33;1.00;;;0.90;;
32365;SDS011;18837;46.832;16.838;2023-04-15T12:44:59;2.17;;;1.30;;
32365;SDS011;18837;46.832;16.838;2023-04-15T12:47:34;1.63;;;1.10;;
32365;SDS011;18837;46.832;16.838;2023-04-15T12:50:00;1.67;;;1.20;;
32365;SDS011;18837;46.832;16.838;2023-04-15T12:52:26;3.47;;;1.73;;
32365;SDS011;18837;46.832;16.838;2023-04-15T12:54:52;1.90;;;1.13;;
32365;SDS011;18837;46.832;16.838;2023-04-15T12:57:20;1.40;;;1.10;;
32365;SDS011;18837;46.832;16.838;2023-04-15T12:59:46;1.33;;;1.10;;
32365;SDS011;18837;46.832;16.838;2023-04-15T13:02:12;1.50;;;1.20;;
32365;SDS011;18837;46.832;16.838;2023-04-15T13:04:50;1.47;;;1.23;;
32365;SDS011;18837;46.832;16.838;2023-04-15T13:07:28;1.17;;;1.00;;
32365;SDS011;18837;46.832;16.838;2023-04-15T13:09:54;2.37;;;1.33;;
32365;SDS011;18837;46.832;16.838;2023-04-15T13:12:20;1.97;;;1.50;;
32365;SDS011;18837;46.832;16.838;2023-04-15T13:14:46;1.57;;;0.90;;
32365;SDS011;18837;46.832;16.838;2023-04-15T13:17:12;1.27;;;0.80;;
32365;SDS011;18837;46.832;16.838;2023-04-15T13:19:38;1.37;;;1.10;;
32365;SDS011;18837;46.832;16.838;2023-04-15T13:22:09;1.23;;;1.00;;
32365;SDS011;18837;46.832;16.838;2023-04-15T13:24:35;1.63;;;1.00;;
32365;SDS011;18837;46.832;16.838;2023-04-15T13:27:01;1.10;;;0.80;;
32365;SDS011;18837;46.832;16.838;2023-04-15T13:29:28;1.47;;;1.07;;
32365;SDS011;18837;46.832;16.838;2023-04-15T13:31:54;1.67;;;1.13;;
32365;SDS011;18837;46.832;16.838;2023-04-15T13:34:20;1.33;;;1.07;;
32365;SDS011;18837;46.832;16.838;2023-04-15T13:36:46;1.30;;;1.10;;
32365;SDS011;18837;46.832;16.838;2023-04-15T13:39:24;0.77;;;0.70;;
32365;SDS011;18837;46.832;16.838;2023-04-15T13:42:03;0.80;;;0.80;;
32365;SDS011;18837;46.832;16.838;2023-04-15T13:44:30;1.13;;;0.90;;
32365;SDS011;18837;46.832;16.838;2023-04-15T13:46:55;0.93;;;0.80;;
32365;SDS011;18837;46.832;16.838;2023-04-15T13:49:21;0.93;;;0.90;;
32365;SDS011;18837;46.832;16.838;2023-04-15T13:51:47;1.27;;;0.90;;
32365;SDS011;18837;46.832;16.838;2023-04-15T13:54:13;0.77;;;0.63;;
32365;SDS011;18837;46.832;16.838;2023-04-15T13:56:42;0.90;;;0.77;;
32365;SDS011;18837;46.832;16.838;2023-04-15T13:59:07;1.03;;;0.80;;
32365;SDS011;18837;46.832;16.838;2023-04-15T14:01:34;1.30;;;0.70;;
32365;SDS011;18837;46.832;16.838;2023-04-15T14:04:00;0.70;;;0.70;;
32365;SDS011;18837;46.832;16.838;2023-04-15T14:06:26;1.23;;;1.13;;
32365;SDS011;18837;46.832;16.838;2023-04-15T14:08:52;1.13;;;0.83;;
32365;SDS011;18837;46.832;16.838;2023-04-15T14:11:19;1.47;;;1.33;;
32365;SDS011;18837;46.832;16.838;2023-04-15T14:13:57;1.97;;;1.10;;
32365;SDS011;18837;46.832;16.838;2023-04-15T14:16:39;1.37;;;1.20;;
32365;SDS011;18837;46.832;16.838;2023-04-15T14:19:04;2.33;;;1.27;;
32365;SDS011;18837;46.832;16.838;2023-04-15T14:21:30;1.23;;;1.10;;
32365;SDS011;18837;46.832;16.838;2023-04-15T14:23:56;1.80;;;1.20;;
32365;SDS011;18837;46.832;16.838;2023-04-15T14:26:22;1.50;;;1.10;;
32365;SDS011;18837;46.832;16.838;2023-04-15T14:28:48;1.57;;;1.10;;
32365;SDS011;18837;46.832;16.838;2023-04-15T14:31:20;2.43;;;1.00;;
32365;SDS011;18837;46.832;16.838;2023-04-15T14:33:46;2.00;;;1.50;;
32365;SDS011;18837;46.832;16.838;2023-04-15T14:36:12;1.33;;;1.10;;
32365;SDS011;18837;46.832;16.838;2023-04-15T14:38:38;1.40;;;1.00;;
32365;SDS011;18837;46.832;16.838;2023-04-15T14:41:07;1.10;;;1.00;;
32365;SDS011;18837;46.832;16.838;2023-04-15T14:43:34;1.10;;;1.00;;
32365;SDS011;18837;46.832;16.838;2023-04-15T14:46:00;1.20;;;0.90;;
32365;SDS011;18837;46.832;16.838;2023-04-15T14:48:45;1.73;;;1.10;;
32365;SDS011;18837;46.832;16.838;2023-04-15T14:51:26;1.30;;;1.00;;
32365;SDS011;18837;46.832;16.838;2023-04-15T14:53:52;1.23;;;1.00;;
32365;SDS011;18837;46.832;16.838;2023-04-15T14:56:17;1.17;;;1.03;;
32365;SDS011;18837;46.832;16.838;2023-04-15T14:58:43;1.40;;;1.17;;
32365;SDS011;18837;46.832;16.838;2023-04-15T15:01:09;1.03;;;0.93;;
32365;SDS011;18837;46.832;16.838;2023-04-15T15:03:35;1.23;;;1.13;;
32365;SDS011;18837;46.832;16.838;2023-04-15T15:06:06;1.53;;;1.37;;
32365;SDS011;18837;46.832;16.838;2023-04-15T15:08:32;1.53;;;1.30;;
32365;SDS011;18837;46.832;16.838;2023-04-15T15:10:58;1.23;;;1.00;;
32365;SDS011;18837;46.832;16.838;2023-04-15T15:13:24;1.33;;;1.23;;
32365;SDS011;18837;46.832;16.838;2023-04-15T15:15:50;1.10;;;1.00;;
32365;SDS011;18837;46.832;16.838;2023-04-15T15:18:16;1.60;;;1.40;;
32365;SDS011;18837;46.832;16.838;2023-04-15T15:20:55;1.37;;;1.13;;
32365;SDS011;18837;46.832;16.838;2023-04-15T15:26:08;1.30;;;1.17;;